createdAt,value
2022-11-21T00:00:39.907Z,100452.19
2022-11-21T00:03:06.425Z,100451.38
2022-11-21T00:05:33.137Z,100438.16
2022-11-21T00:07:59.678Z,100436.19
2022-11-21T00:10:26.296Z,100434.28
2022-11-21T00:12:56.725Z,100433.03
2022-11-21T00:15:24.789Z,100433.34
2022-11-21T00:17:51.693Z,100431.66
2022-11-21T00:20:19.461Z,100425.88
2022-11-21T00:22:46.283Z,100423.53
2022-11-21T00:25:13.162Z,100431.53
2022-11-21T00:27:39.882Z,100426.31
2022-11-21T00:30:08.437Z,100428.63
2022-11-21T00:32:34.965Z,100416.38
2022-11-21T00:35:01.454Z,100418.56
2022-11-21T00:37:28.091Z,100415.13
2022-11-21T00:39:54.530Z,100399.00
2022-11-21T00:42:20.987Z,100391.56
2022-11-21T00:44:47.514Z,100392.78
2022-11-21T00:47:14.039Z,100388.81
2022-11-21T00:49:40.501Z,100383.41
2022-11-21T00:52:06.974Z,100379.31
2022-11-21T00:54:33.448Z,100386.75
2022-11-21T00:57:00.105Z,100378.34
2022-11-21T00:59:26.576Z,100375.75
2022-11-21T01:01:53.031Z,100382.19
2022-11-21T01:04:19.633Z,100378.47
2022-11-21T01:06:46.153Z,100370.75
2022-11-21T01:09:12.605Z,100364.97
2022-11-21T01:11:39.045Z,100361.75
2022-11-21T01:14:05.557Z,100365.03
2022-11-21T01:16:32.230Z,100364.50
2022-11-21T01:18:58.743Z,100353.47
2022-11-21T01:21:30.267Z,100356.09
2022-11-21T01:23:59.168Z,100345.94
2022-11-21T01:26:28.018Z,100363.16
2022-11-21T01:28:54.999Z,100355.81
2022-11-21T01:31:23.638Z,100344.63
2022-11-21T01:33:50.087Z,100343.13
2022-11-21T01:36:18.959Z,100337.06
2022-11-21T01:38:47.458Z,100334.47
2022-11-21T01:41:16.733Z,100321.09
2022-11-21T01:43:43.199Z,100326.47
2022-11-21T01:46:09.538Z,100315.34
2022-11-21T01:48:55.971Z,100326.94
2022-11-21T01:51:32.451Z,100332.00
2022-11-21T01:54:00.384Z,100330.59
2022-11-21T01:56:28.983Z,100336.22
2022-11-21T01:58:57.398Z,100329.44
2022-11-21T02:01:24.198Z,100321.22
2022-11-21T02:03:51.289Z,100312.03
2022-11-21T02:06:17.764Z,100314.66
2022-11-21T02:08:45.283Z,100315.81
2022-11-21T02:11:26.054Z,100322.97
2022-11-21T02:13:52.879Z,100335.94
2022-11-21T02:16:19.320Z,100341.69
2022-11-21T02:18:45.885Z,100340.47
2022-11-21T02:21:50.888Z,100334.25
2022-11-21T02:24:23.506Z,100343.06
2022-11-21T02:26:50.226Z,100344.47
2022-11-21T02:29:17.040Z,100339.38
2022-11-21T02:31:43.476Z,100327.09
2022-11-21T02:34:09.945Z,100337.97
2022-11-21T02:37:02.672Z,100336.16
2022-11-21T02:39:34.313Z,100337.97
2022-11-21T02:42:27.967Z,100336.34
2022-11-21T02:45:18.770Z,100325.56
2022-11-21T02:47:45.309Z,100318.28
2022-11-21T02:50:27.561Z,100307.81
2022-11-21T02:52:55.375Z,100299.84
2022-11-21T02:55:22.915Z,100303.69
2022-11-21T02:57:49.426Z,100302.03
2022-11-21T03:00:16.293Z,100296.97
2022-11-21T03:02:42.833Z,100299.03
2022-11-21T03:05:11.494Z,100295.13
2022-11-21T03:07:38.152Z,100292.28
2022-11-21T03:10:05.273Z,100294.63
2022-11-21T03:12:31.752Z,100296.41
2022-11-21T03:14:58.209Z,100300.25
2022-11-21T03:17:24.668Z,100313.47
2022-11-21T03:19:51.127Z,100313.03
2022-11-21T03:22:17.574Z,100311.97
2022-11-21T03:24:44.042Z,100307.28
2022-11-21T03:27:10.500Z,100309.19
2022-11-21T03:29:36.951Z,100312.09
2022-11-21T03:32:03.453Z,100313.50
2022-11-21T03:34:30.200Z,100305.38
2022-11-21T03:36:56.778Z,100295.44
2022-11-21T03:39:23.229Z,100300.97
2022-11-21T03:41:49.732Z,100288.44
2022-11-21T03:44:16.244Z,100286.94
2022-11-21T03:46:44.266Z,100289.81
2022-11-21T03:49:11.299Z,100286.38
2022-11-21T03:51:37.967Z,100296.53
2022-11-21T03:54:04.733Z,100300.66
2022-11-21T03:56:31.220Z,100300.41
2022-11-21T03:58:57.694Z,100295.19
2022-11-21T04:01:24.317Z,100294.09
2022-11-21T04:03:51.251Z,100300.41
2022-11-21T04:06:19.636Z,100294.63
2022-11-21T04:08:46.485Z,100290.66
2022-11-21T04:11:13.281Z,100291.31
2022-11-21T04:13:39.788Z,100278.13
2022-11-21T04:16:06.391Z,100280.72
2022-11-21T04:18:34.128Z,100282.13
2022-11-21T04:21:02.966Z,100270.28
2022-11-21T04:23:29.553Z,100274.81
2022-11-21T04:25:56.006Z,100275.50
2022-11-21T04:28:22.454Z,100273.97
2022-11-21T04:30:49.060Z,100269.72
2022-11-21T04:33:17.100Z,100265.03
2022-11-21T04:35:44.353Z,100258.16
2022-11-21T04:38:11.495Z,100253.44
2022-11-21T04:40:38.283Z,100252.44
2022-11-21T04:43:04.818Z,100246.38
2022-11-21T04:45:31.679Z,100240.28
2022-11-21T04:47:58.261Z,100231.38
2022-11-21T04:50:24.776Z,100236.06
2022-11-21T04:52:52.117Z,100227.53
2022-11-21T04:55:19.451Z,100228.59
2022-11-21T04:57:46.328Z,100227.66
2022-11-21T05:00:14.291Z,100230.50
2022-11-21T05:02:40.807Z,100225.66
2022-11-21T05:05:07.460Z,100229.59
2022-11-21T05:07:33.966Z,100224.66
2022-11-21T05:10:00.503Z,100215.44
2022-11-21T05:12:45.597Z,100220.06
2022-11-21T05:15:12.058Z,100221.47
2022-11-21T05:17:38.674Z,100214.09
2022-11-21T05:20:05.599Z,100218.03
2022-11-21T05:22:32.045Z,100215.84
2022-11-21T05:24:58.574Z,100204.81
2022-11-21T05:27:25.037Z,100208.38
2022-11-21T05:29:51.506Z,100196.19
2022-11-21T05:32:17.968Z,100198.00
2022-11-21T05:34:44.523Z,100190.00
2022-11-21T05:37:10.969Z,100191.41
2022-11-21T05:39:37.438Z,100188.41
2022-11-21T05:42:04.062Z,100184.22
2022-11-21T05:44:30.948Z,100192.75
2022-11-21T05:46:57.561Z,100187.16
2022-11-21T05:49:24.055Z,100187.44
2022-11-21T05:51:50.524Z,100184.25
2022-11-21T05:54:17.290Z,100177.28
2022-11-21T05:56:43.740Z,100179.81
2022-11-21T05:59:13.288Z,100176.00
2022-11-21T06:01:58.345Z,100178.47
2022-11-21T06:04:24.958Z,100165.03
2022-11-21T06:06:51.533Z,100155.16
2022-11-21T06:09:17.985Z,100153.19
2022-11-21T06:11:44.453Z,100156.41
2022-11-21T06:14:11.013Z,100144.59
2022-11-21T06:16:37.612Z,100146.81
2022-11-21T06:19:04.117Z,100140.59
2022-11-21T06:21:30.592Z,100142.59
2022-11-21T06:23:58.165Z,100140.34
2022-11-21T06:26:26.199Z,100140.66
2022-11-21T06:28:53.022Z,100129.88
2022-11-21T06:31:24.633Z,100136.38
2022-11-21T06:33:55.674Z,100134.91
2022-11-21T06:36:22.225Z,100128.38
2022-11-21T06:38:48.910Z,100134.63
2022-11-21T06:41:20.393Z,100130.06
2022-11-21T06:43:46.917Z,100127.13
2022-11-21T06:46:14.247Z,100127.44
2022-11-21T06:48:41.491Z,100142.63
2022-11-21T06:51:11.866Z,100148.44
2022-11-21T06:53:38.348Z,100140.06
2022-11-21T06:56:05.166Z,100142.03
2022-11-21T06:58:31.803Z,100155.47
2022-11-21T07:00:58.610Z,100145.44
2022-11-21T07:03:25.063Z,100156.75
2022-11-21T07:05:52.522Z,100171.78
2022-11-21T07:08:19.004Z,100170.13
2022-11-21T07:11:10.195Z,100165.53
2022-11-21T07:13:32.464Z,100164.91
2022-11-21T07:16:10.169Z,100160.25
2022-11-21T07:18:36.967Z,100174.56
2022-11-21T07:21:05.399Z,100170.34
2022-11-21T07:23:32.812Z,100163.69
2022-11-21T07:26:03.866Z,100183.66
2022-11-21T07:28:30.755Z,100178.75
2022-11-21T07:30:57.793Z,100179.56
2022-11-21T07:33:24.347Z,100170.94
2022-11-21T07:35:50.826Z,100169.25
2022-11-21T07:38:17.302Z,100174.00
2022-11-21T07:40:43.840Z,100176.19
2022-11-21T07:43:11.173Z,100180.16
2022-11-21T07:45:38.046Z,100172.34
2022-11-21T07:48:07.154Z,100168.41
2022-11-21T07:50:33.918Z,100164.78
2022-11-21T07:53:07.827Z,100168.34
2022-11-21T07:55:40.183Z,100171.25
2022-11-21T07:58:12.838Z,100173.75
2022-11-21T08:00:42.563Z,100166.41
2022-11-21T08:03:09.129Z,100174.47
2022-11-21T08:05:40.075Z,100172.88
2022-11-21T08:08:07.055Z,100173.78
2022-11-21T08:10:33.861Z,100174.44
2022-11-21T08:13:00.346Z,100172.78
2022-11-21T08:15:26.805Z,100170.13
2022-11-21T08:17:53.269Z,100170.66
2022-11-21T08:20:19.750Z,100171.38
2022-11-21T08:22:46.228Z,100160.84
2022-11-21T08:25:12.750Z,100161.16
2022-11-21T08:27:40.079Z,100159.06
2022-11-21T08:30:08.169Z,100161.53
2022-11-21T08:32:34.739Z,100157.28
2022-11-21T08:35:01.321Z,100152.53
2022-11-21T08:37:30.994Z,100151.06
2022-11-21T08:40:00.970Z,100146.63
2022-11-21T08:42:27.707Z,100148.91
2022-11-21T08:44:54.159Z,100150.41
2022-11-21T08:47:20.767Z,100138.84
2022-11-21T08:49:48.119Z,100152.38
2022-11-21T08:52:17.155Z,100151.06
2022-11-21T08:54:44.521Z,100145.16
2022-11-21T08:57:11.210Z,100155.84
2022-11-21T08:59:37.721Z,100159.63
2022-11-21T09:02:04.302Z,100153.06
2022-11-21T09:04:30.898Z,100159.78
2022-11-21T09:06:57.491Z,100152.69
2022-11-21T09:09:25.587Z,100163.25
2022-11-21T09:11:52.344Z,100163.41
2022-11-21T09:14:37.225Z,100163.69
2022-11-21T09:17:25.026Z,100167.81
2022-11-21T09:19:51.490Z,100159.09
2022-11-21T09:22:17.964Z,100157.28
2022-11-21T09:24:44.405Z,100166.50
2022-11-21T09:27:10.858Z,100152.19
2022-11-21T09:29:37.311Z,100162.91
2022-11-21T09:32:03.768Z,100162.44
2022-11-21T09:34:31.739Z,100161.41
2022-11-21T09:36:58.344Z,100161.25
2022-11-21T09:39:25.218Z,100167.81
2022-11-21T09:42:34.274Z,100170.28
2022-11-21T09:45:07.008Z,100162.72
2022-11-21T09:47:37.026Z,100167.66
2022-11-21T09:50:20.725Z,100162.25
2022-11-21T09:52:49.620Z,100158.66
2022-11-21T09:55:34.446Z,100162.56
2022-11-21T09:58:03.455Z,100156.00
2022-11-21T10:00:30.417Z,100157.13
2022-11-21T10:02:57.375Z,100158.81
2022-11-21T10:05:33.617Z,100152.41
2022-11-21T10:08:07.417Z,100145.31
2022-11-21T10:10:33.815Z,100146.97
2022-11-21T10:13:11.147Z,100139.25
2022-11-21T10:16:06.820Z,100136.13
2022-11-21T10:18:58.295Z,100134.31
2022-11-21T10:21:24.620Z,100125.59
2022-11-21T10:24:29.058Z,100125.78
2022-11-21T10:27:02.480Z,100121.97
2022-11-21T10:29:39.102Z,100126.75
2022-11-21T10:32:22.922Z,100128.91
2022-11-21T10:34:49.305Z,100125.78
2022-11-21T10:37:16.587Z,100120.19
2022-11-21T10:39:49.512Z,100121.34
2022-11-21T10:42:34.678Z,100116.25
2022-11-21T10:45:16.214Z,100116.72
2022-11-21T10:47:42.733Z,100120.16
2022-11-21T10:50:08.945Z,100121.50
2022-11-21T10:52:41.222Z,100121.84
2022-11-21T10:55:09.204Z,100125.28
2022-11-21T10:57:45.156Z,100120.03
2022-11-21T11:00:11.396Z,100118.19
2022-11-21T11:02:37.943Z,100112.13
2022-11-21T11:05:17.794Z,100112.28
2022-11-21T11:07:58.939Z,100105.03
2022-11-21T11:10:27.940Z,100108.34
2022-11-21T11:13:44.031Z,100094.53
2022-11-21T11:16:19.546Z,100094.22
2022-11-21T11:19:03.042Z,100098.44
2022-11-21T11:21:30.254Z,100088.94
2022-11-21T11:24:07.133Z,100089.44
2022-11-21T11:26:33.431Z,100094.19
2022-11-21T11:29:15.415Z,100088.41
2022-11-21T11:31:42.708Z,100085.28
2022-11-21T11:34:11.796Z,100084.59
2022-11-21T11:36:44.437Z,100077.41
2022-11-21T11:39:14.319Z,100076.09
2022-11-21T11:42:16.637Z,100083.97
2022-11-21T11:45:06.024Z,100081.28
2022-11-21T11:47:33.747Z,100069.56
2022-11-21T11:50:26.325Z,100070.34
2022-11-21T11:52:55.986Z,100061.41
2022-11-21T11:55:28.193Z,100066.19
2022-11-21T11:57:56.516Z,100058.84
2022-11-21T12:00:46.043Z,100045.38
2022-11-21T12:03:12.455Z,100053.47
2022-11-21T12:05:40.002Z,100046.03
2022-11-21T12:08:41.540Z,100049.47
2022-11-21T12:11:43.635Z,100054.25
2022-11-21T12:14:42.804Z,100045.38
2022-11-21T12:17:09.138Z,100035.09
2022-11-21T12:19:36.264Z,100044.97
2022-11-21T12:22:06.333Z,100042.19
2022-11-21T12:24:36.072Z,100042.19
2022-11-21T12:27:11.470Z,100027.91
2022-11-21T12:29:48.593Z,100034.19
2022-11-21T12:32:15.024Z,100034.19
2022-11-21T12:34:41.284Z,100028.25
2022-11-21T12:37:16.701Z,100012.31
2022-11-21T12:39:49.883Z,100019.34
2022-11-21T12:42:50.320Z,100012.84
2022-11-21T12:45:28.602Z,100008.44
2022-11-21T12:48:19.910Z,100005.91
2022-11-21T12:51:04.777Z,100001.81
2022-11-21T12:53:59.167Z,100007.69
2022-11-21T12:56:38.885Z,100005.69
2022-11-21T12:59:05.262Z,100002.06
2022-11-21T13:01:35.724Z,99991.25
2022-11-21T13:04:03.036Z,99992.13
2022-11-21T13:06:30.309Z,99980.59
2022-11-21T13:08:57.018Z,99986.25
2022-11-21T13:11:48.281Z,99980.34
2022-11-21T13:14:19.143Z,99984.28
2022-11-21T13:16:48.463Z,99978.91
2022-11-21T13:19:17.193Z,99976.75
2022-11-21T13:21:50.093Z,99972.25
2022-11-21T13:24:35.239Z,99965.94
2022-11-21T13:27:04.403Z,99962.66
2022-11-21T13:29:31.144Z,99959.84
2022-11-21T13:31:57.596Z,99956.31
2022-11-21T13:34:37.379Z,99955.22
2022-11-21T13:37:04.593Z,99945.34
2022-11-21T13:39:32.827Z,99940.91
2022-11-21T13:42:24.509Z,99941.69
2022-11-21T13:44:51.056Z,99948.09
2022-11-21T13:47:26.550Z,99958.69
2022-11-21T13:49:59.078Z,99965.63
2022-11-21T13:52:44.143Z,99961.84
2022-11-21T13:55:13.450Z,99961.53
2022-11-21T13:57:59.947Z,99962.66
2022-11-21T14:00:42.814Z,99959.72
2022-11-21T14:03:29.093Z,99955.09
2022-11-21T14:06:15.716Z,99957.59
2022-11-21T14:08:43.689Z,99950.94
2022-11-21T14:11:20.061Z,99960.31
2022-11-21T14:13:47.080Z,99963.22
2022-11-21T14:16:28.551Z,99965.56
2022-11-21T14:18:54.860Z,99959.88
2022-11-21T14:21:22.165Z,99960.28
2022-11-21T14:23:48.566Z,99957.53
2022-11-21T14:26:16.002Z,99959.78
2022-11-21T14:28:42.302Z,99952.28
2022-11-21T14:31:09.352Z,99959.63
2022-11-21T14:33:36.395Z,99955.41
2022-11-21T14:36:05.854Z,99954.03
2022-11-21T14:38:40.330Z,99954.66
2022-11-21T14:41:22.801Z,99948.97
2022-11-21T14:43:49.211Z,99946.19
2022-11-21T14:46:16.380Z,99944.31
2022-11-21T14:48:42.786Z,99942.75
2022-11-21T14:51:09.133Z,99939.03
2022-11-21T14:53:35.467Z,99928.22
2022-11-21T14:56:02.063Z,99930.16
2022-11-21T14:58:28.420Z,99923.19
2022-11-21T15:01:08.482Z,99927.38
2022-11-21T15:03:34.840Z,99922.94
2022-11-21T15:06:05.639Z,99920.22
2022-11-21T15:09:10.295Z,99917.28
2022-11-21T15:11:19.085Z,99919.47
2022-11-21T15:14:12.408Z,99910.03
2022-11-21T15:16:32.375Z,99911.84
2022-11-21T15:18:58.792Z,99915.41
2022-11-21T15:21:25.084Z,99921.72
2022-11-21T15:23:51.546Z,99920.84
2022-11-21T15:26:47.603Z,99922.91
2022-11-21T15:32:06.883Z,99923.13
2022-11-21T15:37:22.350Z,99921.94
2022-11-21T15:39:49.827Z,99908.66
2022-11-21T15:42:31.519Z,99900.75
2022-11-21T15:45:01.125Z,99896.50
2022-11-21T15:47:28.449Z,99879.13
2022-11-21T15:49:54.895Z,99883.97
2022-11-21T15:52:21.181Z,99874.56
2022-11-21T15:54:48.244Z,99857.94
2022-11-21T15:57:13.499Z,99916.94
2022-11-21T15:57:16.738Z,99857.47
2022-11-21T15:59:43.578Z,99855.28
2022-11-21T16:02:11.296Z,99845.34
2022-11-21T16:04:37.593Z,99840.16
2022-11-21T16:07:03.998Z,99839.81
2022-11-21T16:09:30.849Z,99836.78
2022-11-21T16:11:57.297Z,99844.34
2022-11-21T16:14:23.641Z,99838.50
2022-11-21T16:16:49.927Z,99843.25
2022-11-21T16:19:16.477Z,99847.69
2022-11-21T16:21:42.777Z,99837.63
2022-11-21T16:24:09.241Z,99841.91
2022-11-21T16:26:35.742Z,99831.78
2022-11-21T16:29:05.268Z,99830.25
2022-11-21T16:31:31.749Z,99832.00
2022-11-21T16:33:58.732Z,99831.72
2022-11-21T16:36:25.792Z,99831.69
2022-11-21T16:38:52.195Z,99827.19
2022-11-21T16:41:21.999Z,99820.63
2022-11-21T16:43:49.801Z,99821.69
2022-11-21T16:46:16.453Z,99823.09
2022-11-21T16:48:42.895Z,99832.47
2022-11-21T16:51:15.466Z,99828.50
2022-11-21T16:53:41.817Z,99827.19
2022-11-21T16:56:08.367Z,99821.00
2022-11-21T16:58:38.125Z,99820.72
2022-11-21T17:01:08.406Z,99814.34
2022-11-21T17:03:34.775Z,99816.00
2022-11-21T17:06:01.222Z,99814.56
2022-11-21T17:08:27.917Z,99822.25
2022-11-21T17:10:54.504Z,99804.06
2022-11-21T17:13:20.870Z,99814.25
2022-11-21T17:15:47.187Z,99822.41
2022-11-21T17:18:13.473Z,99813.97
2022-11-21T17:20:39.785Z,99828.91
2022-11-21T17:23:06.087Z,99834.16
2022-11-21T17:25:32.516Z,99830.69
2022-11-21T17:27:58.827Z,99833.97
2022-11-21T17:30:25.198Z,99832.22
2022-11-21T17:32:51.565Z,99850.59
2022-11-21T17:35:18.155Z,99854.22
2022-11-21T17:37:44.433Z,99853.25
2022-11-21T17:40:12.033Z,99854.88
2022-11-21T17:42:40.613Z,99853.69
2022-11-21T17:45:07.530Z,99849.13
2022-11-21T17:47:34.027Z,99836.63
2022-11-21T17:50:05.557Z,99840.44
2022-11-21T17:52:32.581Z,99848.13
2022-11-21T17:54:58.945Z,99847.31
2022-11-21T17:57:25.228Z,99834.03
2022-11-21T17:59:51.676Z,99835.03
2022-11-21T18:02:18.241Z,99838.97
2022-11-21T18:04:44.720Z,99833.59
2022-11-21T18:07:11.111Z,99848.81
2022-11-21T18:09:37.508Z,99846.88
2022-11-21T18:12:03.833Z,99840.97
2022-11-21T18:14:30.706Z,99837.50
2022-11-21T18:16:57.094Z,99848.84
2022-11-21T18:19:24.152Z,99842.91
2022-11-21T18:21:51.698Z,99836.84
2022-11-21T18:24:18.039Z,99831.63
2022-11-21T18:26:44.366Z,99836.19
2022-11-21T18:29:35.153Z,99827.00
2022-11-21T18:31:56.959Z,99833.75
2022-11-21T18:34:23.266Z,99821.28
2022-11-21T18:36:49.596Z,99823.41
2022-11-21T18:39:16.028Z,99828.16
2022-11-21T18:41:42.630Z,99807.63
2022-11-21T18:44:09.761Z,99828.16
2022-11-21T18:46:36.223Z,99834.91
2022-11-21T18:49:05.946Z,99832.06
2022-11-21T18:51:32.668Z,99846.03
2022-11-21T18:54:05.050Z,99851.09
2022-11-21T18:56:31.340Z,99838.59
2022-11-21T18:58:59.113Z,99833.56
2022-11-21T19:01:26.884Z,99836.50
2022-11-21T19:03:53.437Z,99822.22
2022-11-21T19:06:21.019Z,99818.63
2022-11-21T19:08:52.079Z,99827.97
2022-11-21T19:11:20.055Z,99828.47
2022-11-21T19:13:46.960Z,99820.91
2022-11-21T19:16:17.407Z,99819.25
2022-11-21T19:18:48.476Z,99812.03
2022-11-21T19:21:21.754Z,99803.63
2022-11-21T19:23:48.154Z,99820.88
2022-11-21T19:26:15.296Z,99813.28
2022-11-21T19:28:42.074Z,99815.28
2022-11-21T19:31:10.600Z,99813.63
2022-11-21T19:33:37.126Z,99813.13
2022-11-21T19:36:16.786Z,99817.09
2022-11-21T19:38:49.132Z,99807.50
2022-11-21T19:41:18.410Z,99811.66
2022-11-21T19:43:45.498Z,99802.13
2022-11-21T19:46:12.562Z,99796.06
2022-11-21T19:48:38.931Z,99799.47
2022-11-21T19:51:05.345Z,99794.84
2022-11-21T19:53:35.857Z,99784.22
2022-11-21T19:56:13.067Z,99799.31
2022-11-21T19:58:39.625Z,99794.56
2022-11-21T20:01:07.182Z,99791.41
2022-11-21T20:03:34.135Z,99781.13
2022-11-21T20:06:07.856Z,99787.59
2022-11-21T20:08:34.413Z,99782.38
2022-11-21T20:11:10.302Z,99782.69
2022-11-21T20:13:37.296Z,99781.81
2022-11-21T20:16:03.765Z,99776.38
2022-11-21T20:18:30.116Z,99780.88
2022-11-21T20:20:56.421Z,99791.63
2022-11-21T20:23:22.760Z,99793.69
2022-11-21T20:25:49.641Z,99795.59
2022-11-21T20:28:16.022Z,99787.41
2022-11-21T20:30:43.325Z,99793.97
2022-11-21T20:33:11.426Z,99793.69
2022-11-21T20:35:39.186Z,99789.50
2022-11-21T20:38:05.788Z,99794.19
2022-11-21T20:40:32.241Z,99788.75
2022-11-21T20:42:58.538Z,99790.56
2022-11-21T20:46:07.080Z,99788.00
2022-11-21T20:48:15.893Z,99793.97
2022-11-21T20:51:59.613Z,99794.13
2022-11-21T20:53:51.978Z,99796.53
2022-11-21T20:56:19.524Z,99799.66
2022-11-21T20:58:45.978Z,99797.63
2022-11-21T21:01:12.859Z,99811.22
2022-11-21T21:03:39.314Z,99808.19
2022-11-21T21:06:07.294Z,99802.59
2022-11-21T21:08:34.217Z,99814.84
2022-11-21T21:11:06.683Z,99798.69
2022-11-21T21:13:33.456Z,99792.00
2022-11-21T21:16:26.418Z,99792.63
2022-11-21T21:18:53.588Z,99796.69
2022-11-21T21:21:21.111Z,99805.00
2022-11-21T21:23:48.432Z,99797.16
2022-11-21T21:26:14.664Z,99811.44
2022-11-21T21:28:41.210Z,99800.66
2022-11-21T21:31:08.201Z,99806.16
2022-11-21T21:33:34.559Z,99805.50
2022-11-21T21:36:05.315Z,99793.53
2022-11-21T21:38:31.623Z,99785.56
2022-11-21T21:40:57.918Z,99786.13
2022-11-21T21:43:24.216Z,99780.19
2022-11-21T21:45:50.841Z,99772.09
2022-11-21T21:48:17.143Z,99763.41
2022-11-21T21:50:43.439Z,99750.63
2022-11-21T21:53:09.815Z,99753.13
2022-11-21T21:55:36.100Z,99753.94
2022-11-21T21:58:02.404Z,99746.13
2022-11-21T22:00:28.850Z,99746.75
2022-11-21T22:02:55.153Z,99744.28
2022-11-21T22:05:21.432Z,99745.09
2022-11-21T22:07:47.780Z,99741.00
2022-11-21T22:10:14.146Z,99741.09
2022-11-21T22:12:43.990Z,99766.03
2022-11-21T22:15:10.668Z,99763.31
2022-11-21T22:17:36.965Z,99766.66
2022-11-21T22:20:03.494Z,99765.84
2022-11-21T22:22:30.864Z,99754.94
2022-11-21T22:24:57.197Z,99763.22
2022-11-21T22:27:23.488Z,99766.53
2022-11-21T22:29:49.785Z,99766.44
2022-11-21T22:32:19.653Z,99770.94
2022-11-21T22:34:46.677Z,99774.41
2022-11-21T22:37:12.983Z,99780.50
2022-11-21T22:39:39.453Z,99764.91
2022-11-21T22:42:05.749Z,99786.00
2022-11-21T22:44:32.277Z,99782.66
2022-11-21T22:46:58.749Z,99772.91
2022-11-21T22:49:25.057Z,99777.00
2022-11-21T22:51:51.344Z,99781.31
2022-11-21T22:54:17.823Z,99765.59
2022-11-21T22:56:44.153Z,99774.16
2022-11-21T22:59:13.840Z,99772.81
2022-11-21T23:01:40.227Z,99775.56
2022-11-21T23:04:06.567Z,99768.63
2022-11-21T23:06:33.122Z,99769.91
2022-11-21T23:08:59.418Z,99766.97
2022-11-21T23:11:27.484Z,99770.81
2022-11-21T23:13:54.173Z,99761.06
2022-11-21T23:16:21.096Z,99770.50
2022-11-21T23:18:47.587Z,99769.22
2022-11-21T23:21:13.999Z,99760.66
2022-11-21T23:23:40.481Z,99763.09
2022-11-21T23:26:06.798Z,99769.81
2022-11-21T23:28:33.398Z,99759.03
2022-11-21T23:30:59.721Z,99760.06
2022-11-21T23:33:26.040Z,99748.06
2022-11-21T23:35:52.334Z,99736.13
2022-11-21T23:38:18.625Z,99730.69
2022-11-21T23:40:46.042Z,99741.03
2022-11-21T23:43:12.761Z,99730.13
2022-11-21T23:45:39.065Z,99727.56
2022-11-21T23:48:08.421Z,99723.22
2022-11-21T23:50:34.721Z,99722.41
2022-11-21T23:53:01.105Z,99720.16
2022-11-21T23:55:27.642Z,99727.63
2022-11-21T23:57:53.940Z,99722.03
